Morning Charlotte — 3EMA2 — position and weather

sailwx.info

Track history (hours):
 
Tides and Currents Weather Stations Pressure Air Temp Water Temp Dewpoint Dewpoint Depression Visibility Wind Speed Wind Dir Waves Ship Positions

Morning Charlotte

Last reported at 2017-Apr-10 11:47 UTC. Time now 2017-Apr-27 18:47 UTC.
Position N 34°46' E 139°15'.
Warning: this ship's position is 17 days out of date.

; draft 7.7 m.

Type: Cargo ship. MMSI: 357275000.

Date/timePositionNaut miles runAvg speedWind from/ knotsBaromVisibWave heightAir tempDewpointWater temp
2017-Apr-10 11:47N 34°46' E 139°15'618.3
2017-Apr-10 11:27N 34°51' E 139°19'818.1
2017-Apr-10 11:00N 34°56' E 139°27'918.4
2017-Apr-10 10:30N 35°00' E 139°37'816.6
2017-Apr-10 10:00N 35°06' E 139°44'612.7
2017-Apr-10 09:31N 35°13' E 139°46'611.6
2017-Apr-10 09:01N 35°18' E 139°44'612.8
2017-Apr-10 08:30N 35°24' E 139°42'3 6.5
2017-Apr-10 08:00N 35°27' E 139°41'0 0.0
2017-Apr-10 07:30N 35°27' E 139°41'0 0.1
2017-Apr-10 07:00N 35°27' E 139°41'0 0.0
2017-Apr-10 06:30N 35°27' E 139°41'0 0.0
2017-Apr-10 06:00N 35°27' E 139°41'0 0.0
2017-Apr-10 05:30N 35°27' E 139°41'0 0.0
2017-Apr-10 05:00N 35°27' E 139°41'0 0.0
2017-Apr-10 04:30N 35°27' E 139°41'0 0.0
2017-Apr-10 04:00N 35°27' E 139°41'0 0.0
2017-Apr-10 03:30N 35°27' E 139°41'0 0.0
2017-Apr-10 03:00N 35°27' E 139°41'0 0.0
2017-Apr-10 02:30N 35°27' E 139°41'0 0.0
2017-Apr-10 02:00N 35°27' E 139°41'0 0.0
2017-Apr-10 01:30N 35°27' E 139°41'0 0.0
2017-Apr-10 01:00N 35°27' E 139°41'0 0.0
2017-Apr-10 00:30N 35°27' E 139°41'0 0.0
2017-Apr-10 00:00N 35°27' E 139°41'0 0.0
2017-Apr-09 23:30N 35°27' E 139°41'0 0.1
2017-Apr-09 23:00N 35°27' E 139°41'0 0.1
2017-Apr-09 22:30N 35°27' E 139°41'0 0.8
2017-Apr-09 22:00N 35°27' E 139°41'3 5.9
2017-Apr-09 21:30N 35°26' E 139°44'1 1.6
2017-Apr-09 20:59N 35°27' E 139°44'0 0.1
2017-Apr-09 20:29N 35°27' E 139°44'0 0.0
2017-Apr-09 19:59N 35°27' E 139°44'0 0.0
2017-Apr-09 19:29N 35°27' E 139°44'0 0.1
2017-Apr-09 18:59N 35°27' E 139°44'0 0.1
2017-Apr-09 18:29N 35°27' E 139°44'0 0.0
2017-Apr-09 17:59N 35°27' E 139°44'0 0.0
2017-Apr-09 17:29N 35°27' E 139°44'0 0.0
2017-Apr-09 16:59N 35°27' E 139°44'0 0.1
2017-Apr-09 16:29N 35°27' E 139°44'0 0.0
2017-Apr-09 15:59N 35°27' E 139°44'0 0.0
2017-Apr-09 15:29N 35°27' E 139°44'0 0.1
2017-Apr-09 14:59N 35°27' E 139°44'0 0.0
2017-Apr-09 13:59N 35°27' E 139°44'0 0.1
2017-Apr-09 13:29N 35°27' E 139°44'0 0.0
2017-Apr-09 12:59N 35°27' E 139°44'0 0.1
2017-Apr-09 12:29N 35°27' E 139°44'0 0.0
2017-Apr-09 11:59N 35°27' E 139°44'0 0.1
2017-Apr-09 11:29N 35°27' E 139°44'0 0.0
2017-Apr-09 10:59N 35°27' E 139°44'1 2.2
2017-Apr-09 10:30N 35°26' E 139°45'612.0
2017-Apr-09 10:01N 35°30' E 139°51'815.1
2017-Apr-09 09:31N 35°33' E 139°59'510.9
2017-Apr-09 09:00N 35°36' E 140°06'0 0.2
2017-Apr-09 08:26N 35°36' E 140°06'0 0.0
2017-Apr-09 07:47N 35°36' E 140°06'0 0.0
2017-Apr-09 07:26N 35°36' E 140°06'0 0.0
2017-Apr-09 06:59N 35°36' E 140°06'0 0.0
2017-Apr-09 06:26N 35°36' E 140°06'0 0.0
2017-Apr-09 05:59N 35°36' E 140°06'0 0.0
2017-Apr-09 05:29N 35°36' E 140°06'0 0.0
2017-Apr-09 04:59N 35°36' E 140°06'0 0.0
2017-Apr-09 04:29N 35°36' E 140°06'0 0.0
2017-Apr-09 03:59N 35°36' E 140°06'0 0.0
2017-Apr-09 03:29N 35°36' E 140°06'0 0.0
2017-Apr-09 02:56N 35°36' E 140°06'0 0.0
2017-Apr-09 02:20N 35°36' E 140°06'0 0.0
2017-Apr-09 01:59N 35°36' E 140°06'0 0.7
2017-Apr-09 01:31N 35°35' E 140°05'2 4.9
2017-Apr-09 01:00N 35°35' E 140°02'5 9.5
2017-Apr-09 00:30N 35°32' E 139°58'2 4.0
2017-Apr-09 00:00N 35°31' E 139°55'5 9.3
2017-Apr-08 23:30N 35°28' E 139°51'510.4
2017-Apr-08 23:00N 35°24' E 139°47'510.4
2017-Apr-08 22:30N 35°20' E 139°44'5 9.3
2017-Apr-08 22:00N 35°15' E 139°47'510.4
2017-Apr-08 21:30N 35°10' E 139°47'510.1
2017-Apr-08 21:00N 35°05' E 139°45'4 7.9
2017-Apr-08 20:30N 35°02' E 139°44'611.1
2017-Apr-08 20:00N 34°56' E 139°41'611.3
2017-Apr-08 19:30N 34°51' E 139°38'611.2
2017-Apr-08 18:59N 34°46' E 139°34'  
2017-Apr-05 15:41N 31°05' E 122°55'418.8
2017-Apr-05 15:29N 31°05' E 122°51'917.8
2017-Apr-05 15:00N 31°05' E 122°41'714.6
2017-Apr-05 14:30N 31°05' E 122°32'1212.1
2017-Apr-05 13:30N 31°06' E 122°18'713.5
2017-Apr-05 13:00N 31°10' E 122°12'713.3
2017-Apr-05 12:30N 31°14' E 122°05'612.6
2017-Apr-05 12:00N 31°15' E 121°58'612.0
2017-Apr-05 11:31N 31°16' E 121°51'611.7
2017-Apr-05 11:00N 31°19' E 121°45'3 6.8
2017-Apr-05 10:30N 31°19' E 121°41'0 0.0
2017-Apr-05 09:47N 31°19' E 121°41'0 0.0
2017-Apr-05 09:29N 31°19' E 121°41'0 0.0
2017-Apr-05 08:59N 31°19' E 121°41'0 0.0
2017-Apr-05 08:26N 31°19' E 121°41'0 0.0
2017-Apr-05 07:59N 31°19' E 121°41'0 0.0
2017-Apr-05 07:29N 31°19' E 121°41'0 0.0
2017-Apr-05 06:59N 31°19' E 121°41'0 0.0
2017-Apr-05 06:28N 31°19' E 121°41'0 0.0
2017-Apr-05 05:58N 31°19' E 121°41'0 0.0
2017-Apr-05 05:28N 31°19' E 121°41'0 0.0
2017-Apr-05 04:59N 31°19' E 121°41'0 0.0
2017-Apr-05 04:29N 31°19' E 121°41'0 0.0
2017-Apr-05 03:59N 31°19' E 121°41'0 0.0
2017-Apr-05 03:28N 31°19' E 121°41'0 0.0
2017-Apr-05 02:56N 31°19' E 121°41'0 0.0
2017-Apr-05 02:29N 31°19' E 121°41'0 0.0
2017-Apr-05 01:58N 31°19' E 121°41'0 0.0
2017-Apr-05 01:29N 31°19' E 121°41'0 0.0
2017-Apr-05 00:59N 31°19' E 121°41'0 0.0
2017-Apr-05 00:28N 31°19' E 121°41'0 0.0
2017-Apr-04 23:59N 31°19' E 121°41'0 0.0
2017-Apr-04 23:29N 31°19' E 121°41'0 0.0
2017-Apr-04 22:59N 31°19' E 121°41'0 0.0
2017-Apr-04 22:25N 31°19' E 121°41'0 0.0
2017-Apr-04 21:58N 31°19' E 121°41'0 0.0
2017-Apr-04 21:29N 31°19' E 121°41'0 0.0
2017-Apr-04 20:56N 31°19' E 121°41'0 0.0
2017-Apr-04 20:29N 31°19' E 121°41'0 0.0
2017-Apr-04 19:52N 31°19' E 121°41'0 0.0
2017-Apr-04 19:29N 31°19' E 121°41'0 0.0
2017-Apr-04 18:58N 31°19' E 121°41'0 0.0
2017-Apr-04 18:30N 31°19' E 121°41'0 0.0
2017-Apr-04 18:00N 31°19' E 121°41'0 0.0
2017-Apr-04 17:30N 31°19' E 121°41'0 0.0
2017-Apr-04 17:00N 31°19' E 121°41'0 0.0
2017-Apr-04 16:30N 31°19' E 121°41'0 0.0
2017-Apr-04 16:00N 31°19' E 121°41'0 0.0
2017-Apr-04 15:30N 31°19' E 121°41'0 0.0
2017-Apr-04 15:00N 31°19' E 121°41'0 0.0
2017-Apr-04 14:30N 31°19' E 121°41'0 0.0
2017-Apr-04 13:30N 31°19' E 121°41'0 0.0
2017-Apr-04 13:00N 31°19' E 121°41'0 0.0
2017-Apr-04 12:30N 31°19' E 121°41'0 0.0
2017-Apr-04 12:00N 31°19' E 121°41'0 0.0
2017-Apr-04 11:30N 31°19' E 121°41'0 0.0
2017-Apr-04 11:00N 31°19' E 121°41'0 0.0
2017-Apr-04 10:30N 31°19' E 121°41'0 0.3
2017-Apr-04 10:00N 31°19' E 121°41'2 3.6
2017-Apr-04 09:30N 31°19' E 121°43'611.8
2017-Apr-04 09:00N 31°17' E 121°49'611.7
2017-Apr-04 08:30N 31°15' E 121°56'510.7
2017-Apr-04 08:00N 31°14' E 122°02'510.2
2017-Apr-04 07:30N 31°13' E 122°08'611.1
2017-Apr-04 07:00N 31°09' E 122°13'4 9.0
2017-Apr-04 06:30N 31°07' E 122°17'4 8.7
2017-Apr-04 06:00N 31°06' E 122°22'4 8.5
2017-Apr-04 05:30N 31°07' E 122°27'4 8.0
2017-Apr-04 05:00N 31°07' E 122°32'7 6.6
2017-Apr-04 04:00N 31°06' E 122°40'712.1
2017-Apr-04 03:26N 31°07' E 122°48'913.7
2017-Apr-04 02:45N 31°05' E 122°58'414.6
2017-Apr-04 02:30N 31°04' E 123°02'714.9
2017-Apr-04 02:00N 31°00' E 123°10'814.7
2017-Apr-04 01:29N 30°57' E 123°18'711.2
2017-Apr-04 00:51N 30°52' E 123°25'1 1.7
2017-Apr-04 00:30N 30°53' E 123°25'0 0.9
2017-Apr-03 23:59N 30°52' E 123°25'0 0.8
2017-Apr-03 23:30N 30°52' E 123°25'0 0.6
2017-Apr-03 22:53N 30°51' E 123°25'5 6.6
2017-Apr-03 22:08N 30°47' E 123°29'5415.4
2017-Apr-03 18:36N 29°53' E 123°32'2016.3
2017-Apr-03 17:22N 29°34' E 123°26'39816.8
2017-Apr-02 17:41N 24°18' E 118°55'518.2
2017-Apr-02 17:25N 24°14' E 118°52'1818.5
2017-Apr-02 16:27N 24°02' E 118°37'1018.8
2017-Apr-02 15:55N 23°56' E 118°29'  
Track history (hours):
 
Tides and Currents Weather Stations Pressure Air Temp Water Temp Dewpoint Dewpoint Depression Visibility Wind Speed Wind Dir Waves Ship Positions

Morning Charlotte

Last reported at 2017-Apr-10 11:47 UTC. Time now 2017-Apr-27 18:47 UTC.
Position N 34°46' E 139°15'.
Warning: this ship's position is 17 days out of date.

; draft 7.7 m.

Type: Cargo ship. MMSI: 357275000.

Date/timePositionNaut miles runAvg speedWind from/ knotsBaromVisibWave heightAir tempDewpointWater temp
2017-Apr-10 11:47N 34°46' E 139°15'618.3
2017-Apr-10 11:27N 34°51' E 139°19'818.1
2017-Apr-10 11:00N 34°56' E 139°27'918.4
2017-Apr-10 10:30N 35°00' E 139°37'816.6
2017-Apr-10 10:00N 35°06' E 139°44'612.7
2017-Apr-10 09:31N 35°13' E 139°46'611.6
2017-Apr-10 09:01N 35°18' E 139°44'612.8
2017-Apr-10 08:30N 35°24' E 139°42'3 6.5
2017-Apr-10 08:00N 35°27' E 139°41'0 0.0
2017-Apr-10 07:30N 35°27' E 139°41'0 0.1
2017-Apr-10 07:00N 35°27' E 139°41'0 0.0
2017-Apr-10 06:30N 35°27' E 139°41'0 0.0
2017-Apr-10 06:00N 35°27' E 139°41'0 0.0
2017-Apr-10 05:30N 35°27' E 139°41'0 0.0
2017-Apr-10 05:00N 35°27' E 139°41'0 0.0
2017-Apr-10 04:30N 35°27' E 139°41'0 0.0
2017-Apr-10 04:00N 35°27' E 139°41'0 0.0
2017-Apr-10 03:30N 35°27' E 139°41'0 0.0
2017-Apr-10 03:00N 35°27' E 139°41'0 0.0
2017-Apr-10 02:30N 35°27' E 139°41'0 0.0
2017-Apr-10 02:00N 35°27' E 139°41'0 0.0
2017-Apr-10 01:30N 35°27' E 139°41'0 0.0
2017-Apr-10 01:00N 35°27' E 139°41'0 0.0
2017-Apr-10 00:30N 35°27' E 139°41'0 0.0
2017-Apr-10 00:00N 35°27' E 139°41'0 0.0
2017-Apr-09 23:30N 35°27' E 139°41'0 0.1
2017-Apr-09 23:00N 35°27' E 139°41'0 0.1
2017-Apr-09 22:30N 35°27' E 139°41'0 0.8
2017-Apr-09 22:00N 35°27' E 139°41'3 5.9
2017-Apr-09 21:30N 35°26' E 139°44'1 1.6
2017-Apr-09 20:59N 35°27' E 139°44'0 0.1
2017-Apr-09 20:29N 35°27' E 139°44'0 0.0
2017-Apr-09 19:59N 35°27' E 139°44'0 0.0
2017-Apr-09 19:29N 35°27' E 139°44'0 0.1
2017-Apr-09 18:59N 35°27' E 139°44'0 0.1
2017-Apr-09 18:29N 35°27' E 139°44'0 0.0
2017-Apr-09 17:59N 35°27' E 139°44'0 0.0
2017-Apr-09 17:29N 35°27' E 139°44'0 0.0
2017-Apr-09 16:59N 35°27' E 139°44'0 0.1
2017-Apr-09 16:29N 35°27' E 139°44'0 0.0
2017-Apr-09 15:59N 35°27' E 139°44'0 0.0
2017-Apr-09 15:29N 35°27' E 139°44'0 0.1
2017-Apr-09 14:59N 35°27' E 139°44'0 0.0
2017-Apr-09 13:59N 35°27' E 139°44'0 0.1
2017-Apr-09 13:29N 35°27' E 139°44'0 0.0
2017-Apr-09 12:59N 35°27' E 139°44'0 0.1
2017-Apr-09 12:29N 35°27' E 139°44'0 0.0
2017-Apr-09 11:59N 35°27' E 139°44'0 0.1
2017-Apr-09 11:29N 35°27' E 139°44'0 0.0
2017-Apr-09 10:59N 35°27' E 139°44'1 2.2
2017-Apr-09 10:30N 35°26' E 139°45'612.0
2017-Apr-09 10:01N 35°30' E 139°51'815.1
2017-Apr-09 09:31N 35°33' E 139°59'510.9
2017-Apr-09 09:00N 35°36' E 140°06'0 0.2
2017-Apr-09 08:26N 35°36' E 140°06'0 0.0
2017-Apr-09 07:47N 35°36' E 140°06'0 0.0
2017-Apr-09 07:26N 35°36' E 140°06'0 0.0
2017-Apr-09 06:59N 35°36' E 140°06'0 0.0
2017-Apr-09 06:26N 35°36' E 140°06'0 0.0
2017-Apr-09 05:59N 35°36' E 140°06'0 0.0
2017-Apr-09 05:29N 35°36' E 140°06'0 0.0
2017-Apr-09 04:59N 35°36' E 140°06'0 0.0
2017-Apr-09 04:29N 35°36' E 140°06'0 0.0
2017-Apr-09 03:59N 35°36' E 140°06'0 0.0
2017-Apr-09 03:29N 35°36' E 140°06'0 0.0
2017-Apr-09 02:56N 35°36' E 140°06'0 0.0
2017-Apr-09 02:20N 35°36' E 140°06'0 0.0
2017-Apr-09 01:59N 35°36' E 140°06'0 0.7
2017-Apr-09 01:31N 35°35' E 140°05'2 4.9
2017-Apr-09 01:00N 35°35' E 140°02'5 9.5
2017-Apr-09 00:30N 35°32' E 139°58'2 4.0
2017-Apr-09 00:00N 35°31' E 139°55'5 9.3
2017-Apr-08 23:30N 35°28' E 139°51'510.4
2017-Apr-08 23:00N 35°24' E 139°47'510.4
2017-Apr-08 22:30N 35°20' E 139°44'5 9.3
2017-Apr-08 22:00N 35°15' E 139°47'510.4
2017-Apr-08 21:30N 35°10' E 139°47'510.1
2017-Apr-08 21:00N 35°05' E 139°45'4 7.9
2017-Apr-08 20:30N 35°02' E 139°44'611.1
2017-Apr-08 20:00N 34°56' E 139°41'611.3
2017-Apr-08 19:30N 34°51' E 139°38'611.2
2017-Apr-08 18:59N 34°46' E 139°34'  
2017-Apr-05 15:41N 31°05' E 122°55'418.8
2017-Apr-05 15:29N 31°05' E 122°51'917.8
2017-Apr-05 15:00N 31°05' E 122°41'714.6
2017-Apr-05 14:30N 31°05' E 122°32'1212.1
2017-Apr-05 13:30N 31°06' E 122°18'713.5
2017-Apr-05 13:00N 31°10' E 122°12'713.3
2017-Apr-05 12:30N 31°14' E 122°05'612.6
2017-Apr-05 12:00N 31°15' E 121°58'612.0
2017-Apr-05 11:31N 31°16' E 121°51'611.7
2017-Apr-05 11:00N 31°19' E 121°45'3 6.8
2017-Apr-05 10:30N 31°19' E 121°41'0 0.0
2017-Apr-05 09:47N 31°19' E 121°41'0 0.0
2017-Apr-05 09:29N 31°19' E 121°41'0 0.0
2017-Apr-05 08:59N 31°19' E 121°41'0 0.0
2017-Apr-05 08:26N 31°19' E 121°41'0 0.0
2017-Apr-05 07:59N 31°19' E 121°41'0 0.0
2017-Apr-05 07:29N 31°19' E 121°41'0 0.0
2017-Apr-05 06:59N 31°19' E 121°41'0 0.0
2017-Apr-05 06:28N 31°19' E 121°41'0 0.0
2017-Apr-05 05:58N 31°19' E 121°41'0 0.0
2017-Apr-05 05:28N 31°19' E 121°41'0 0.0
2017-Apr-05 04:59N 31°19' E 121°41'0 0.0
2017-Apr-05 04:29N 31°19' E 121°41'0 0.0
2017-Apr-05 03:59N 31°19' E 121°41'0 0.0
2017-Apr-05 03:28N 31°19' E 121°41'0 0.0
2017-Apr-05 02:56N 31°19' E 121°41'0 0.0
2017-Apr-05 02:29N 31°19' E 121°41'0 0.0
2017-Apr-05 01:58N 31°19' E 121°41'0 0.0
2017-Apr-05 01:29N 31°19' E 121°41'0 0.0
2017-Apr-05 00:59N 31°19' E 121°41'0 0.0
2017-Apr-05 00:28N 31°19' E 121°41'0 0.0
2017-Apr-04 23:59N 31°19' E 121°41'0 0.0
2017-Apr-04 23:29N 31°19' E 121°41'0 0.0
2017-Apr-04 22:59N 31°19' E 121°41'0 0.0
2017-Apr-04 22:25N 31°19' E 121°41'0 0.0
2017-Apr-04 21:58N 31°19' E 121°41'0 0.0
2017-Apr-04 21:29N 31°19' E 121°41'0 0.0
2017-Apr-04 20:56N 31°19' E 121°41'0 0.0
2017-Apr-04 20:29N 31°19' E 121°41'0 0.0
2017-Apr-04 19:52N 31°19' E 121°41'0 0.0
2017-Apr-04 19:29N 31°19' E 121°41'0 0.0
2017-Apr-04 18:58N 31°19' E 121°41'0 0.0
2017-Apr-04 18:30N 31°19' E 121°41'0 0.0
2017-Apr-04 18:00N 31°19' E 121°41'0 0.0
2017-Apr-04 17:30N 31°19' E 121°41'0 0.0
2017-Apr-04 17:00N 31°19' E 121°41'0 0.0
2017-Apr-04 16:30N 31°19' E 121°41'0 0.0
2017-Apr-04 16:00N 31°19' E 121°41'0 0.0
2017-Apr-04 15:30N 31°19' E 121°41'0 0.0
2017-Apr-04 15:00N 31°19' E 121°41'0 0.0
2017-Apr-04 14:30N 31°19' E 121°41'0 0.0
2017-Apr-04 13:30N 31°19' E 121°41'0 0.0
2017-Apr-04 13:00N 31°19' E 121°41'0 0.0
2017-Apr-04 12:30N 31°19' E 121°41'0 0.0
2017-Apr-04 12:00N 31°19' E 121°41'0 0.0
2017-Apr-04 11:30N 31°19' E 121°41'0 0.0
2017-Apr-04 11:00N 31°19' E 121°41'0 0.0
2017-Apr-04 10:30N 31°19' E 121°41'0 0.3
2017-Apr-04 10:00N 31°19' E 121°41'2 3.6
2017-Apr-04 09:30N 31°19' E 121°43'611.8
2017-Apr-04 09:00N 31°17' E 121°49'611.7
2017-Apr-04 08:30N 31°15' E 121°56'510.7
2017-Apr-04 08:00N 31°14' E 122°02'510.2
2017-Apr-04 07:30N 31°13' E 122°08'611.1
2017-Apr-04 07:00N 31°09' E 122°13'4 9.0
2017-Apr-04 06:30N 31°07' E 122°17'4 8.7
2017-Apr-04 06:00N 31°06' E 122°22'4 8.5
2017-Apr-04 05:30N 31°07' E 122°27'4 8.0
2017-Apr-04 05:00N 31°07' E 122°32'7 6.6
2017-Apr-04 04:00N 31°06' E 122°40'712.1
2017-Apr-04 03:26N 31°07' E 122°48'913.7
2017-Apr-04 02:45N 31°05' E 122°58'414.6
2017-Apr-04 02:30N 31°04' E 123°02'714.9
2017-Apr-04 02:00N 31°00' E 123°10'814.7
2017-Apr-04 01:29N 30°57' E 123°18'711.2
2017-Apr-04 00:51N 30°52' E 123°25'1 1.7
2017-Apr-04 00:30N 30°53' E 123°25'0 0.9
2017-Apr-03 23:59N 30°52' E 123°25'0 0.8
2017-Apr-03 23:30N 30°52' E 123°25'0 0.6
2017-Apr-03 22:53N 30°51' E 123°25'5 6.6
2017-Apr-03 22:08N 30°47' E 123°29'5415.4
2017-Apr-03 18:36N 29°53' E 123°32'2016.3
2017-Apr-03 17:22N 29°34' E 123°26'39816.8
2017-Apr-02 17:41N 24°18' E 118°55'518.2
2017-Apr-02 17:25N 24°14' E 118°52'1818.5
2017-Apr-02 16:27N 24°02' E 118°37'1018.8
2017-Apr-02 15:55N 23°56' E 118°29'  

Dump ship's entire track history